sensor_id;sensor_type;location;lat;lon;timestamp;P1;durP1;ratioP1;P2;durP2;ratioP2
53287;SDS011;39172;45.550;12.072;2022-10-16T00:01:46;16.65;;;11.43;;
53287;SDS011;39172;45.550;12.072;2022-10-16T00:07:47;21.65;;;13.30;;
53287;SDS011;39172;45.550;12.072;2022-10-16T00:13:48;21.83;;;14.80;;
53287;SDS011;39172;45.550;12.072;2022-10-16T00:19:49;23.25;;;15.43;;
53287;SDS011;39172;45.550;12.072;2022-10-16T00:26:09;19.40;;;13.25;;
53287;SDS011;39172;45.550;12.072;2022-10-16T00:32:10;16.70;;;11.95;;
53287;SDS011;39172;45.550;12.072;2022-10-16T00:38:11;17.35;;;11.90;;
53287;SDS011;39172;45.550;12.072;2022-10-16T00:50:32;14.68;;;10.35;;
53287;SDS011;39172;45.550;12.072;2022-10-16T00:56:33;12.30;;;9.13;;
53287;SDS011;39172;45.550;12.072;2022-10-16T01:02:35;12.10;;;9.02;;
53287;SDS011;39172;45.550;12.072;2022-10-16T01:08:44;12.00;;;8.75;;
53287;SDS011;39172;45.550;12.072;2022-10-16T01:14:52;11.80;;;8.32;;
53287;SDS011;39172;45.550;12.072;2022-10-16T01:20:54;10.70;;;7.85;;
53287;SDS011;39172;45.550;12.072;2022-10-16T01:33:06;8.10;;;5.78;;
53287;SDS011;39172;45.550;12.072;2022-10-16T01:39:10;5.82;;;4.65;;
53287;SDS011;39172;45.550;12.072;2022-10-16T01:45:12;9.93;;;7.22;;
53287;SDS011;39172;45.550;12.072;2022-10-16T01:51:14;8.48;;;6.15;;
53287;SDS011;39172;45.550;12.072;2022-10-16T01:57:16;6.15;;;4.40;;
53287;SDS011;39172;45.550;12.072;2022-10-16T02:03:20;6.18;;;4.55;;
53287;SDS011;39172;45.550;12.072;2022-10-16T02:09:21;14.38;;;9.93;;
53287;SDS011;39172;45.550;12.072;2022-10-16T02:15:22;13.23;;;8.90;;
53287;SDS011;39172;45.550;12.072;2022-10-16T02:21:25;16.27;;;11.00;;
53287;SDS011;39172;45.550;12.072;2022-10-16T02:27:33;22.50;;;14.45;;
53287;SDS011;39172;45.550;12.072;2022-10-16T02:33:35;25.42;;;16.48;;
53287;SDS011;39172;45.550;12.072;2022-10-16T02:39:38;26.55;;;16.38;;
53287;SDS011;39172;45.550;12.072;2022-10-16T02:45:40;26.33;;;17.55;;
53287;SDS011;39172;45.550;12.072;2022-10-16T02:51:41;26.63;;;17.42;;
53287;SDS011;39172;45.550;12.072;2022-10-16T02:57:42;26.63;;;17.45;;
53287;SDS011;39172;45.550;12.072;2022-10-16T03:03:43;27.60;;;17.77;;
53287;SDS011;39172;45.550;12.072;2022-10-16T03:09:44;26.52;;;17.13;;
53287;SDS011;39172;45.550;12.072;2022-10-16T03:15:45;25.85;;;17.33;;
53287;SDS011;39172;45.550;12.072;2022-10-16T03:21:46;34.50;;;21.48;;
53287;SDS011;39172;45.550;12.072;2022-10-16T03:27:47;35.35;;;21.67;;
53287;SDS011;39172;45.550;12.072;2022-10-16T03:33:48;43.15;;;26.15;;
53287;SDS011;39172;45.550;12.072;2022-10-16T03:39:49;41.28;;;24.75;;
53287;SDS011;39172;45.550;12.072;2022-10-16T03:45:50;38.60;;;24.10;;
53287;SDS011;39172;45.550;12.072;2022-10-16T03:51:52;48.08;;;28.75;;
53287;SDS011;39172;45.550;12.072;2022-10-16T03:57:53;41.00;;;26.13;;
53287;SDS011;39172;45.550;12.072;2022-10-16T04:03:54;41.60;;;26.33;;
53287;SDS011;39172;45.550;12.072;2022-10-16T04:09:55;45.10;;;27.90;;
53287;SDS011;39172;45.550;12.072;2022-10-16T04:15:57;43.10;;;26.83;;
53287;SDS011;39172;45.550;12.072;2022-10-16T04:21:58;43.38;;;27.27;;
53287;SDS011;39172;45.550;12.072;2022-10-16T04:27:59;40.75;;;25.52;;
53287;SDS011;39172;45.550;12.072;2022-10-16T04:34:00;36.70;;;23.10;;
53287;SDS011;39172;45.550;12.072;2022-10-16T04:40:01;31.75;;;20.65;;
53287;SDS011;39172;45.550;12.072;2022-10-16T04:46:03;27.77;;;17.98;;
53287;SDS011;39172;45.550;12.072;2022-10-16T04:52:05;36.13;;;24.20;;
53287;SDS011;39172;45.550;12.072;2022-10-16T04:58:06;37.83;;;25.05;;
53287;SDS011;39172;45.550;12.072;2022-10-16T05:04:08;31.60;;;20.60;;
53287;SDS011;39172;45.550;12.072;2022-10-16T05:10:09;33.83;;;22.40;;
53287;SDS011;39172;45.550;12.072;2022-10-16T05:16:10;32.70;;;21.38;;
53287;SDS011;39172;45.550;12.072;2022-10-16T05:22:11;31.58;;;20.63;;
53287;SDS011;39172;45.550;12.072;2022-10-16T05:28:12;27.90;;;19.10;;
53287;SDS011;39172;45.550;12.072;2022-10-16T05:34:13;33.42;;;22.42;;
53287;SDS011;39172;45.550;12.072;2022-10-16T05:40:14;29.00;;;20.02;;
53287;SDS011;39172;45.550;12.072;2022-10-16T05:46:15;35.20;;;23.30;;
53287;SDS011;39172;45.550;12.072;2022-10-16T05:52:16;34.53;;;23.70;;
53287;SDS011;39172;45.550;12.072;2022-10-16T05:58:18;35.40;;;24.50;;
53287;SDS011;39172;45.550;12.072;2022-10-16T06:04:19;35.95;;;23.15;;
53287;SDS011;39172;45.550;12.072;2022-10-16T06:10:20;36.25;;;24.58;;
53287;SDS011;39172;45.550;12.072;2022-10-16T06:16:21;33.00;;;22.20;;
53287;SDS011;39172;45.550;12.072;2022-10-16T06:22:22;38.70;;;24.42;;
53287;SDS011;39172;45.550;12.072;2022-10-16T06:28:23;29.83;;;20.58;;
53287;SDS011;39172;45.550;12.072;2022-10-16T06:34:24;35.60;;;24.00;;
53287;SDS011;39172;45.550;12.072;2022-10-16T06:40:25;34.65;;;23.17;;
53287;SDS011;39172;45.550;12.072;2022-10-16T06:46:27;32.72;;;22.65;;
53287;SDS011;39172;45.550;12.072;2022-10-16T06:52:28;30.55;;;21.88;;
53287;SDS011;39172;45.550;12.072;2022-10-16T06:58:29;33.65;;;23.17;;
53287;SDS011;39172;45.550;12.072;2022-10-16T07:04:30;29.15;;;20.63;;
53287;SDS011;39172;45.550;12.072;2022-10-16T07:10:31;28.23;;;19.83;;
53287;SDS011;39172;45.550;12.072;2022-10-16T07:16:32;31.70;;;20.90;;
53287;SDS011;39172;45.550;12.072;2022-10-16T07:22:33;29.38;;;19.85;;
53287;SDS011;39172;45.550;12.072;2022-10-16T07:28:35;32.08;;;23.00;;
53287;SDS011;39172;45.550;12.072;2022-10-16T07:34:36;30.40;;;21.50;;
53287;SDS011;39172;45.550;12.072;2022-10-16T07:40:37;26.70;;;19.52;;
53287;SDS011;39172;45.550;12.072;2022-10-16T07:46:37;25.50;;;18.00;;
53287;SDS011;39172;45.550;12.072;2022-10-16T07:52:38;22.52;;;16.08;;
53287;SDS011;39172;45.550;12.072;2022-10-16T07:58:39;25.88;;;18.60;;
53287;SDS011;39172;45.550;12.072;2022-10-16T08:04:40;25.23;;;18.38;;
53287;SDS011;39172;45.550;12.072;2022-10-16T08:10:41;29.15;;;20.30;;
53287;SDS011;39172;45.550;12.072;2022-10-16T08:16:42;26.92;;;19.25;;
53287;SDS011;39172;45.550;12.072;2022-10-16T08:22:43;26.15;;;18.38;;
53287;SDS011;39172;45.550;12.072;2022-10-16T08:28:45;25.33;;;17.90;;
53287;SDS011;39172;45.550;12.072;2022-10-16T08:34:46;26.17;;;18.33;;
53287;SDS011;39172;45.550;12.072;2022-10-16T08:40:47;33.53;;;22.88;;
53287;SDS011;39172;45.550;12.072;2022-10-16T08:53:24;25.67;;;17.55;;
53287;SDS011;39172;45.550;12.072;2022-10-16T08:59:26;27.13;;;18.23;;
53287;SDS011;39172;45.550;12.072;2022-10-16T09:23:34;22.23;;;15.02;;
53287;SDS011;39172;45.550;12.072;2022-10-16T09:29:35;24.13;;;16.83;;
53287;SDS011;39172;45.550;12.072;2022-10-16T09:35:37;25.25;;;17.38;;
53287;SDS011;39172;45.550;12.072;2022-10-16T09:41:40;23.90;;;16.63;;
53287;SDS011;39172;45.550;12.072;2022-10-16T09:47:42;21.42;;;15.18;;
53287;SDS011;39172;45.550;12.072;2022-10-16T09:53:44;23.70;;;16.60;;
53287;SDS011;39172;45.550;12.072;2022-10-16T09:59:50;25.27;;;17.60;;
53287;SDS011;39172;45.550;12.072;2022-10-16T10:05:51;20.95;;;14.55;;
53287;SDS011;39172;45.550;12.072;2022-10-16T10:17:54;15.70;;;11.70;;
53287;SDS011;39172;45.550;12.072;2022-10-16T10:23:55;16.65;;;12.10;;
53287;SDS011;39172;45.550;12.072;2022-10-16T10:36:28;24.58;;;16.15;;
53287;SDS011;39172;45.550;12.072;2022-10-16T11:07:05;21.33;;;14.80;;
53287;SDS011;39172;45.550;12.072;2022-10-16T11:13:14;23.05;;;15.90;;
53287;SDS011;39172;45.550;12.072;2022-10-16T11:25:29;25.27;;;17.35;;
53287;SDS011;39172;45.550;12.072;2022-10-16T11:31:38;16.47;;;11.83;;
53287;SDS011;39172;45.550;12.072;2022-10-16T11:37:41;16.90;;;11.73;;
53287;SDS011;39172;45.550;12.072;2022-10-16T11:56:17;16.13;;;10.75;;
53287;SDS011;39172;45.550;12.072;2022-10-16T12:02:33;15.63;;;10.75;;
53287;SDS011;39172;45.550;12.072;2022-10-16T12:08:36;14.77;;;10.60;;
53287;SDS011;39172;45.550;12.072;2022-10-16T12:14:38;15.68;;;11.25;;
53287;SDS011;39172;45.550;12.072;2022-10-16T12:20:40;16.63;;;11.52;;
53287;SDS011;39172;45.550;12.072;2022-10-16T12:26:46;19.45;;;13.90;;
53287;SDS011;39172;45.550;12.072;2022-10-16T12:32:54;20.90;;;14.75;;
53287;SDS011;39172;45.550;12.072;2022-10-16T12:38:56;20.92;;;14.18;;
53287;SDS011;39172;45.550;12.072;2022-10-16T12:44:57;19.33;;;13.45;;
53287;SDS011;39172;45.550;12.072;2022-10-16T12:51:09;20.83;;;14.55;;
53287;SDS011;39172;45.550;12.072;2022-10-16T13:15:31;13.75;;;10.18;;
53287;SDS011;39172;45.550;12.072;2022-10-16T13:28:08;13.63;;;9.02;;
53287;SDS011;39172;45.550;12.072;2022-10-16T13:34:14;11.30;;;8.63;;
53287;SDS011;39172;45.550;12.072;2022-10-16T13:40:21;11.30;;;8.88;;
53287;SDS011;39172;45.550;12.072;2022-10-16T13:46:23;14.57;;;10.60;;
53287;SDS011;39172;45.550;12.072;2022-10-16T13:52:24;12.90;;;9.40;;
53287;SDS011;39172;45.550;12.072;2022-10-16T13:58:25;10.15;;;7.88;;
53287;SDS011;39172;45.550;12.072;2022-10-16T14:04:27;10.43;;;8.18;;
53287;SDS011;39172;45.550;12.072;2022-10-16T14:10:31;14.80;;;11.52;;
53287;SDS011;39172;45.550;12.072;2022-10-16T14:16:32;13.63;;;10.43;;
53287;SDS011;39172;45.550;12.072;2022-10-16T14:22:40;12.10;;;9.25;;
53287;SDS011;39172;45.550;12.072;2022-10-16T14:28:42;12.85;;;9.90;;
53287;SDS011;39172;45.550;12.072;2022-10-16T14:34:52;17.17;;;13.07;;
53287;SDS011;39172;45.550;12.072;2022-10-16T14:40:53;10.68;;;8.50;;
53287;SDS011;39172;45.550;12.072;2022-10-16T14:46:55;11.35;;;9.10;;
53287;SDS011;39172;45.550;12.072;2022-10-16T14:52:56;17.70;;;12.88;;
53287;SDS011;39172;45.550;12.072;2022-10-16T14:58:57;15.05;;;10.77;;
53287;SDS011;39172;45.550;12.072;2022-10-16T15:04:58;16.85;;;12.88;;
53287;SDS011;39172;45.550;12.072;2022-10-16T15:11:02;12.43;;;9.75;;
53287;SDS011;39172;45.550;12.072;2022-10-16T15:17:03;11.68;;;9.40;;
53287;SDS011;39172;45.550;12.072;2022-10-16T15:23:26;10.55;;;8.43;;
53287;SDS011;39172;45.550;12.072;2022-10-16T15:29:26;11.82;;;8.35;;
53287;SDS011;39172;45.550;12.072;2022-10-16T15:35:27;12.48;;;10.07;;
53287;SDS011;39172;45.550;12.072;2022-10-16T15:41:28;12.52;;;9.80;;
53287;SDS011;39172;45.550;12.072;2022-10-16T15:47:29;16.10;;;12.52;;
53287;SDS011;39172;45.550;12.072;2022-10-16T15:53:30;16.58;;;12.38;;
53287;SDS011;39172;45.550;12.072;2022-10-16T15:59:31;17.88;;;14.02;;
53287;SDS011;39172;45.550;12.072;2022-10-16T16:05:32;15.55;;;12.57;;
53287;SDS011;39172;45.550;12.072;2022-10-16T16:11:34;14.27;;;11.50;;
53287;SDS011;39172;45.550;12.072;2022-10-16T16:17:38;14.30;;;10.70;;
53287;SDS011;39172;45.550;12.072;2022-10-16T16:23:39;13.82;;;10.98;;
53287;SDS011;39172;45.550;12.072;2022-10-16T16:29:40;13.68;;;11.50;;
53287;SDS011;39172;45.550;12.072;2022-10-16T16:35:41;17.52;;;13.85;;
53287;SDS011;39172;45.550;12.072;2022-10-16T16:41:42;18.83;;;14.20;;
53287;SDS011;39172;45.550;12.072;2022-10-16T16:47:43;19.50;;;14.70;;
53287;SDS011;39172;45.550;12.072;2022-10-16T16:53:48;14.88;;;12.23;;
53287;SDS011;39172;45.550;12.072;2022-10-16T16:59:50;14.73;;;11.38;;
53287;SDS011;39172;45.550;12.072;2022-10-16T17:05:57;19.17;;;14.30;;
53287;SDS011;39172;45.550;12.072;2022-10-16T17:11:59;16.27;;;13.07;;
53287;SDS011;39172;45.550;12.072;2022-10-16T17:18:00;20.92;;;15.30;;
53287;SDS011;39172;45.550;12.072;2022-10-16T17:24:01;21.48;;;16.10;;
53287;SDS011;39172;45.550;12.072;2022-10-16T17:30:03;25.02;;;18.10;;
53287;SDS011;39172;45.550;12.072;2022-10-16T17:36:04;25.13;;;18.33;;
53287;SDS011;39172;45.550;12.072;2022-10-16T17:42:05;22.58;;;17.10;;
53287;SDS011;39172;45.550;12.072;2022-10-16T17:48:06;21.27;;;14.80;;
53287;SDS011;39172;45.550;12.072;2022-10-16T17:54:07;18.25;;;12.57;;
53287;SDS011;39172;45.550;12.072;2022-10-16T18:00:09;14.77;;;11.55;;
53287;SDS011;39172;45.550;12.072;2022-10-16T18:06:10;13.88;;;9.85;;
53287;SDS011;39172;45.550;12.072;2022-10-16T18:12:13;11.38;;;8.73;;
53287;SDS011;39172;45.550;12.072;2022-10-16T18:18:14;15.40;;;11.48;;
53287;SDS011;39172;45.550;12.072;2022-10-16T18:24:15;15.93;;;12.02;;
53287;SDS011;39172;45.550;12.072;2022-10-16T18:30:17;11.20;;;8.30;;
53287;SDS011;39172;45.550;12.072;2022-10-16T18:36:19;7.18;;;6.18;;
53287;SDS011;39172;45.550;12.072;2022-10-16T18:42:20;7.82;;;5.97;;
53287;SDS011;39172;45.550;12.072;2022-10-16T18:48:21;6.80;;;5.50;;
53287;SDS011;39172;45.550;12.072;2022-10-16T18:54:23;5.80;;;4.53;;
53287;SDS011;39172;45.550;12.072;2022-10-16T19:00:24;5.85;;;4.82;;
53287;SDS011;39172;45.550;12.072;2022-10-16T19:06:25;6.10;;;4.82;;
53287;SDS011;39172;45.550;12.072;2022-10-16T19:12:26;5.30;;;4.32;;
53287;SDS011;39172;45.550;12.072;2022-10-16T19:18:27;15.63;;;11.05;;
53287;SDS011;39172;45.550;12.072;2022-10-16T19:24:30;11.63;;;8.25;;
53287;SDS011;39172;45.550;12.072;2022-10-16T19:30:34;6.68;;;5.28;;
53287;SDS011;39172;45.550;12.072;2022-10-16T19:36:35;12.13;;;8.77;;
53287;SDS011;39172;45.550;12.072;2022-10-16T19:42:37;11.57;;;8.65;;
53287;SDS011;39172;45.550;12.072;2022-10-16T19:48:43;8.50;;;6.40;;
53287;SDS011;39172;45.550;12.072;2022-10-16T19:54:44;11.70;;;8.90;;
53287;SDS011;39172;45.550;12.072;2022-10-16T20:00:45;16.05;;;11.25;;
53287;SDS011;39172;45.550;12.072;2022-10-16T20:06:46;19.80;;;13.73;;
53287;SDS011;39172;45.550;12.072;2022-10-16T20:12:47;13.85;;;9.80;;
53287;SDS011;39172;45.550;12.072;2022-10-16T20:18:48;16.75;;;12.00;;
53287;SDS011;39172;45.550;12.072;2022-10-16T20:24:49;7.03;;;5.32;;
53287;SDS011;39172;45.550;12.072;2022-10-16T20:30:50;8.90;;;6.43;;
53287;SDS011;39172;45.550;12.072;2022-10-16T20:36:51;13.80;;;10.30;;
53287;SDS011;39172;45.550;12.072;2022-10-16T20:42:52;11.35;;;8.55;;
53287;SDS011;39172;45.550;12.072;2022-10-16T20:48:53;9.35;;;7.10;;
53287;SDS011;39172;45.550;12.072;2022-10-16T20:54:56;16.67;;;11.75;;
53287;SDS011;39172;45.550;12.072;2022-10-16T21:01:03;11.38;;;8.48;;
53287;SDS011;39172;45.550;12.072;2022-10-16T21:07:04;8.35;;;6.28;;
53287;SDS011;39172;45.550;12.072;2022-10-16T21:13:05;6.18;;;4.80;;
53287;SDS011;39172;45.550;12.072;2022-10-16T21:19:06;6.13;;;4.75;;
53287;SDS011;39172;45.550;12.072;2022-10-16T21:25:07;5.50;;;4.35;;
53287;SDS011;39172;45.550;12.072;2022-10-16T21:31:09;7.63;;;5.40;;
53287;SDS011;39172;45.550;12.072;2022-10-16T21:37:10;6.15;;;4.95;;
53287;SDS011;39172;45.550;12.072;2022-10-16T21:43:11;7.80;;;5.53;;
53287;SDS011;39172;45.550;12.072;2022-10-16T21:49:14;9.85;;;6.95;;
53287;SDS011;39172;45.550;12.072;2022-10-16T21:55:15;7.43;;;5.85;;
53287;SDS011;39172;45.550;12.072;2022-10-16T22:01:16;7.38;;;5.25;;
53287;SDS011;39172;45.550;12.072;2022-10-16T22:07:18;9.07;;;7.07;;
53287;SDS011;39172;45.550;12.072;2022-10-16T22:13:18;11.15;;;7.80;;
53287;SDS011;39172;45.550;12.072;2022-10-16T22:19:20;10.95;;;7.90;;
53287;SDS011;39172;45.550;12.072;2022-10-16T22:25:21;15.38;;;10.68;;
53287;SDS011;39172;45.550;12.072;2022-10-16T22:31:23;9.25;;;7.18;;
53287;SDS011;39172;45.550;12.072;2022-10-16T22:37:24;10.30;;;7.80;;
53287;SDS011;39172;45.550;12.072;2022-10-16T22:43:25;9.88;;;7.20;;
53287;SDS011;39172;45.550;12.072;2022-10-16T22:49:26;7.72;;;5.88;;
53287;SDS011;39172;45.550;12.072;2022-10-16T22:55:27;6.10;;;4.60;;
53287;SDS011;39172;45.550;12.072;2022-10-16T23:01:33;9.27;;;7.00;;
53287;SDS011;39172;45.550;12.072;2022-10-16T23:07:35;13.80;;;9.82;;
53287;SDS011;39172;45.550;12.072;2022-10-16T23:13:36;23.05;;;15.93;;
53287;SDS011;39172;45.550;12.072;2022-10-16T23:19:37;22.17;;;15.98;;
53287;SDS011;39172;45.550;12.072;2022-10-16T23:25:43;15.32;;;10.77;;
53287;SDS011;39172;45.550;12.072;2022-10-16T23:31:44;12.52;;;9.18;;
53287;SDS011;39172;45.550;12.072;2022-10-16T23:37:44;10.30;;;7.90;;
53287;SDS011;39172;45.550;12.072;2022-10-16T23:43:45;9.45;;;7.18;;
53287;SDS011;39172;45.550;12.072;2022-10-16T23:49:47;20.10;;;14.63;;
53287;SDS011;39172;45.550;12.072;2022-10-16T23:55:47;15.20;;;10.63;;
